Time;durP1;ratioP1;P1;durP2;ratioP2;P2;SDS_P1;SDS_P2;PMS_P1;PMS_P2;Temp;Humidity;BMP_temperature;BMP_pressure;BME280_temperature;BME280_humidity;BME280_pressure;Samples;Min_cycle;Max_cycle;Signal;HPM_P1;HPM_P2
2022/05/22 00:02:11;;;;;;;11.02;4.53;;;10.10;99.90;;;;;;5047126;28;20042;-65
2022/05/22 00:04:37;;;;;;;7.75;4.47;;;10.20;99.90;;;;;;5040917;28;20045;-65
2022/05/22 00:07:05;;;;;;;8.15;4.80;;;10.20;99.90;;;;;;5025832;28;20056;-65
2022/05/22 00:09:31;;;;;;;7.72;4.28;;;10.30;99.90;;;;;;5030182;28;20049;-65
2022/05/22 00:11:58;;;;;;;6.57;3.92;;;10.10;99.90;;;;;;5028644;28;20127;-65
2022/05/22 00:14:25;;;;;;;8.13;4.10;;;10.10;99.90;;;;;;5003780;28;20107;-66
2022/05/22 00:16:51;;;;;;;8.05;4.25;;;10.10;99.90;;;;;;5041988;28;20067;-65
2022/05/22 00:19:20;;;;;;;5.53;4.93;;;10.20;99.90;;;;;;5023486;28;20113;-65
2022/05/22 00:21:47;;;;;;;4.22;3.80;;;10.20;99.90;;;;;;5028434;28;20050;-65
2022/05/22 00:24:15;;;;;;;7.43;4.40;;;10.30;99.90;;;;;;5045839;28;20041;-65
2022/05/22 00:26:40;;;;;;;6.18;4.20;;;10.20;99.90;;;;;;5062275;28;20064;-65
2022/05/22 00:29:07;;;;;;;7.45;4.60;;;10.10;99.90;;;;;;5034413;28;20076;-65
2022/05/22 00:31:33;;;;;;;8.93;4.63;;;9.90;99.90;;;;;;5025630;28;20493;-65
2022/05/22 00:33:59;;;;;;;7.28;4.57;;;9.80;99.90;;;;;;5031825;28;20056;-65
2022/05/22 00:36:24;;;;;;;6.07;3.80;;;9.90;99.90;;;;;;5023698;28;20041;-65
2022/05/22 00:38:50;;;;;;;4.65;3.92;;;9.90;99.90;;;;;;5012738;28;20133;-65
2022/05/22 00:41:16;;;;;;;11.52;4.22;;;9.80;99.90;;;;;;5030748;28;20042;-65
2022/05/22 00:43:48;;;;;;;7.13;4.15;;;9.80;99.90;;;;;;5011868;28;20056;-65
2022/05/22 00:46:16;;;;;;;8.18;4.55;;;9.80;99.90;;;;;;5025047;28;20038;-65
2022/05/22 00:48:45;;;;;;;9.65;6.00;;;9.90;99.90;;;;;;5006933;28;20100;-66
2022/05/22 00:51:24;;;;;;;10.75;4.97;;;9.90;99.90;;;;;;5027557;28;20057;-65
2022/05/22 00:54:14;;;;;;;5.50;3.92;;;9.80;99.90;;;;;;5031414;28;20070;-65
2022/05/22 00:56:46;;;;;;;7.73;4.37;;;9.80;99.90;;;;;;5024630;28;20195;-65
2022/05/22 00:59:16;;;;;;;9.57;4.50;;;9.90;99.90;;;;;;5028098;28;20287;-65
2022/05/22 01:01:42;;;;;;;8.73;4.22;;;9.80;99.90;;;;;;5030611;28;20056;-65
2022/05/22 01:04:14;;;;;;;7.68;4.15;;;9.80;99.90;;;;;;5012019;28;20087;-65
2022/05/22 01:06:40;;;;;;;7.82;4.45;;;9.80;99.90;;;;;;5027816;28;20060;-65
2022/05/22 01:09:05;;;;;;;6.55;4.63;;;9.80;99.90;;;;;;5028144;28;20045;-65
2022/05/22 01:11:36;;;;;;;5.55;3.85;;;9.80;99.90;;;;;;5025177;28;20402;-65
2022/05/22 01:14:06;;;;;;;8.15;4.47;;;9.70;99.90;;;;;;5040818;28;20053;-65
2022/05/22 01:16:33;;;;;;;8.02;4.40;;;9.70;99.90;;;;;;5060761;28;20053;-65
2022/05/22 01:18:59;;;;;;;6.68;3.92;;;9.60;99.90;;;;;;5045186;28;20080;-65
2022/05/22 01:21:30;;;;;;;5.40;3.78;;;9.60;99.90;;;;;;5040740;28;20033;-65
2022/05/22 01:23:56;;;;;;;5.60;3.90;;;9.50;99.90;;;;;;5042652;28;20045;-65
2022/05/22 01:26:25;;;;;;;6.53;3.88;;;9.60;99.90;;;;;;5043383;28;20052;-65
2022/05/22 01:28:51;;;;;;;9.07;3.97;;;9.60;99.90;;;;;;5027053;28;20068;-65
2022/05/22 01:31:17;;;;;;;8.77;3.88;;;9.60;99.90;;;;;;5026946;28;20045;-65
2022/05/22 01:33:43;;;;;;;5.30;3.90;;;9.70;99.90;;;;;;5027580;28;20045;-65
2022/05/22 01:36:10;;;;;;;7.90;4.47;;;9.60;99.90;;;;;;5023726;28;20126;-65
2022/05/22 01:38:37;;;;;;;6.00;3.90;;;9.60;99.90;;;;;;5024581;28;20067;-65
2022/05/22 01:41:04;;;;;;;7.45;4.15;;;9.60;99.90;;;;;;5036780;28;20068;-65
2022/05/22 01:43:30;;;;;;;6.57;3.92;;;9.50;99.90;;;;;;5028074;28;20041;-65
2022/05/22 01:45:55;;;;;;;6.95;4.53;;;9.40;99.90;;;;;;5031164;28;20033;-65
2022/05/22 01:48:22;;;;;;;5.72;3.58;;;9.50;99.90;;;;;;5041036;28;20057;-65
2022/05/22 01:50:48;;;;;;;5.32;3.90;;;9.50;99.90;;;;;;5020152;28;20077;-65
2022/05/22 01:53:15;;;;;;;6.47;3.72;;;9.40;99.90;;;;;;5002902;28;20052;-65
2022/05/22 01:55:41;;;;;;;9.20;4.50;;;9.30;99.90;;;;;;5028695;28;20056;-65
2022/05/22 01:58:07;;;;;;;6.35;4.22;;;9.30;99.90;;;;;;5060683;28;20046;-65
2022/05/22 02:00:34;;;;;;;12.27;5.00;;;9.50;99.90;;;;;;5031662;28;20057;-65
2022/05/22 02:03:00;;;;;;;7.07;4.30;;;9.40;99.90;;;;;;5027126;28;20080;-65
2022/05/22 02:05:26;;;;;;;8.80;3.95;;;9.40;99.90;;;;;;5028746;28;20037;-65
2022/05/22 02:10:38;;;;;;;7.82;4.30;;;9.40;99.90;;;;;;5030719;28;20076;-65
2022/05/22 02:13:04;;;;;;;6.30;4.05;;;9.30;99.90;;;;;;5026722;28;20057;-65
2022/05/22 02:15:30;;;;;;;6.50;4.63;;;9.20;99.90;;;;;;5030232;28;20041;-65
2022/05/22 02:17:56;;;;;;;7.10;4.72;;;9.20;99.90;;;;;;5033509;28;20084;-65
2022/05/22 02:20:23;;;;;;;7.18;4.97;;;9.20;99.90;;;;;;5031028;28;20158;-65
2022/05/22 02:22:51;;;;;;;7.63;5.28;;;9.30;99.90;;;;;;5028669;28;20080;-65
2022/05/22 02:25:21;;;;;;;8.10;4.90;;;9.30;99.90;;;;;;5063670;28;20045;-65
2022/05/22 02:27:47;;;;;;;10.25;5.35;;;9.30;99.90;;;;;;5030902;28;20505;-65
2022/05/22 02:30:17;;;;;;;8.32;5.47;;;9.30;99.90;;;;;;5048331;28;20111;-65
2022/05/22 02:32:42;;;;;;;9.50;5.80;;;9.40;99.90;;;;;;5029582;28;20477;-65
2022/05/22 02:35:10;;;;;;;10.48;5.10;;;9.30;99.90;;;;;;5013658;28;20049;-65
2022/05/22 02:37:47;;;;;;;12.50;6.40;;;9.30;99.90;;;;;;4997533;28;20049;-65
2022/05/22 02:40:14;;;;;;;14.65;6.18;;;9.20;99.90;;;;;;5024817;28;20049;-65
2022/05/22 02:42:41;;;;;;;10.73;6.07;;;9.20;99.90;;;;;;5017413;28;20079;-65
2022/05/22 02:45:08;;;;;;;10.23;5.78;;;9.10;99.90;;;;;;5034223;28;20060;-65
2022/05/22 02:47:34;;;;;;;9.90;5.55;;;9.20;99.90;;;;;;5019880;28;20121;-65
2022/05/22 02:50:00;;;;;;;9.90;5.43;;;9.10;99.90;;;;;;5061876;28;20076;-65
2022/05/22 02:52:26;;;;;;;14.75;6.40;;;9.10;99.90;;;;;;5029904;28;20082;-65
2022/05/22 02:54:52;;;;;;;9.68;5.13;;;9.00;99.90;;;;;;5033609;28;20050;-65
2022/05/22 02:57:21;;;;;;;9.00;4.88;;;9.00;99.90;;;;;;5029175;28;20053;-65
2022/05/22 02:59:50;;;;;;;7.07;4.70;;;8.90;99.90;;;;;;5014399;28;20049;-65
2022/05/22 03:02:16;;;;;;;8.63;4.40;;;8.80;99.90;;;;;;5029685;28;20053;-65
2022/05/22 03:04:42;;;;;;;7.90;4.60;;;8.90;99.90;;;;;;5029108;28;20042;-65
2022/05/22 03:07:10;;;;;;;4.80;3.70;;;9.00;99.90;;;;;;5062049;28;20041;-65
2022/05/22 03:09:38;;;;;;;6.97;3.67;;;9.00;99.90;;;;;;5019034;28;20462;-65
2022/05/22 03:12:09;;;;;;;6.13;4.18;;;8.80;99.90;;;;;;5023931;28;20042;-65
2022/05/22 03:14:35;;;;;;;4.25;3.35;;;8.90;99.90;;;;;;5057885;28;20049;-65
2022/05/22 03:17:01;;;;;;;3.80;3.15;;;8.90;99.90;;;;;;5025294;28;20056;-65
2022/05/22 03:19:26;;;;;;;4.13;3.20;;;8.90;99.90;;;;;;5033905;28;20041;-65
2022/05/22 03:21:52;;;;;;;4.85;3.20;;;8.80;99.90;;;;;;5026333;28;20457;-65
2022/05/22 03:24:18;;;;;;;5.97;3.30;;;8.90;99.90;;;;;;5029697;28;20045;-65
2022/05/22 03:26:44;;;;;;;3.78;3.35;;;8.80;99.90;;;;;;5062109;28;20121;-65
2022/05/22 03:29:11;;;;;;;13.45;3.17;;;8.90;99.90;;;;;;5026826;28;20065;-65
2022/05/22 03:31:37;;;;;;;6.78;2.88;;;8.70;99.90;;;;;;5031159;28;20075;-65
2022/05/22 03:34:03;;;;;;;3.75;2.60;;;8.70;99.90;;;;;;5046999;28;20069;-65
2022/05/22 03:36:29;;;;;;;6.22;2.22;;;8.70;99.90;;;;;;5027042;28;20041;-65
2022/05/22 03:38:55;;;;;;;3.15;2.35;;;8.70;99.90;;;;;;5012649;28;20076;-65
2022/05/22 03:41:21;;;;;;;1.88;1.77;;;8.70;99.90;;;;;;5028941;28;20057;-65
2022/05/22 03:43:47;;;;;;;2.53;2.33;;;8.60;99.90;;;;;;5027439;28;20668;-65
2022/05/22 03:46:13;;;;;;;2.30;2.10;;;8.70;99.90;;;;;;5024525;28;20045;-65
2022/05/22 03:48:40;;;;;;;2.10;1.92;;;8.80;99.90;;;;;;5028963;28;20044;-65
2022/05/22 03:51:06;;;;;;;3.75;2.50;;;8.70;99.90;;;;;;5032314;28;20053;-65
2022/05/22 03:53:32;;;;;;;2.90;2.50;;;8.60;99.90;;;;;;5034207;28;20069;-65
2022/05/22 03:55:57;;;;;;;4.07;2.00;;;8.70;99.90;;;;;;5046658;28;20041;-65
2022/05/22 03:58:23;;;;;;;6.13;3.83;;;8.70;99.90;;;;;;5046697;28;20124;-65
2022/05/22 04:00:49;;;;;;;4.18;2.63;;;8.60;99.90;;;;;;5027049;28;20056;-65
2022/05/22 04:03:14;;;;;;;5.95;3.28;;;8.70;99.90;;;;;;5042978;28;20041;-65
2022/05/22 04:05:40;;;;;;;7.57;4.38;;;8.70;99.90;;;;;;5044740;28;20042;-65
2022/05/22 04:08:06;;;;;;;8.30;4.18;;;8.70;99.90;;;;;;5058265;28;20061;-65
2022/05/22 04:10:32;;;;;;;5.68;3.67;;;8.80;99.90;;;;;;5030448;28;20072;-65
2022/05/22 04:12:58;;;;;;;5.18;3.75;;;8.80;99.90;;;;;;5024115;28;20053;-65
2022/05/22 04:15:24;;;;;;;5.05;3.65;;;8.80;99.90;;;;;;5044421;28;20107;-65
2022/05/22 04:17:50;;;;;;;4.35;3.30;;;8.80;99.90;;;;;;5022296;28;20062;-65
2022/05/22 04:20:18;;;;;;;7.80;3.80;;;8.80;99.90;;;;;;5017523;28;20045;-65
2022/05/22 04:25:29;;;;;;;7.00;5.05;;;9.00;99.90;;;;;;5026641;28;20208;-65
2022/05/22 04:27:55;;;;;;;13.55;5.80;;;9.00;99.90;;;;;;5024882;28;20050;-65
2022/05/22 04:30:21;;;;;;;9.27;5.95;;;9.00;99.90;;;;;;5027646;28;20049;-65
2022/05/22 04:32:48;;;;;;;10.15;6.32;;;8.90;99.90;;;;;;5049544;28;20116;-65
2022/05/22 04:35:14;;;;;;;14.50;6.53;;;9.00;99.90;;;;;;5045630;28;20041;-65
2022/05/22 04:37:40;;;;;;;9.90;6.45;;;9.00;99.90;;;;;;5024393;28;20034;-65
2022/05/22 04:40:07;;;;;;;12.60;6.32;;;9.20;99.90;;;;;;5054936;28;20040;-65
2022/05/22 04:42:34;;;;;;;16.40;7.13;;;9.20;99.90;;;;;;5028758;28;20049;-65
2022/05/22 04:45:00;;;;;;;13.10;6.50;;;9.20;99.90;;;;;;5028269;28;20045;-65
2022/05/22 04:47:25;;;;;;;17.30;7.70;;;9.20;99.90;;;;;;5028657;28;20054;-65
2022/05/22 04:49:51;;;;;;;11.93;7.30;;;9.20;99.90;;;;;;5046194;28;20466;-65
2022/05/22 04:52:17;;;;;;;10.88;7.72;;;9.20;99.90;;;;;;5011176;28;20673;-65
2022/05/22 04:54:42;;;;;;;16.60;9.30;;;9.40;99.90;;;;;;5045343;28;20073;-65
2022/05/22 04:57:08;;;;;;;18.23;9.38;;;9.40;99.90;;;;;;5030010;28;20053;-65
2022/05/22 04:59:34;;;;;;;15.45;8.88;;;9.40;99.90;;;;;;5020130;28;20049;-65
2022/05/22 05:02:01;;;;;;;15.02;9.05;;;9.50;99.90;;;;;;5012775;28;20045;-65
2022/05/22 05:04:27;;;;;;;18.60;9.98;;;9.40;99.90;;;;;;5027477;28;20147;-65
2022/05/22 05:06:52;;;;;;;19.90;10.52;;;9.60;99.90;;;;;;5027516;28;20049;-65
2022/05/22 05:09:18;;;;;;;18.60;10.38;;;9.70;99.90;;;;;;5030071;28;20079;-65
2022/05/22 05:11:44;;;;;;;21.92;10.80;;;9.80;99.90;;;;;;5026874;28;20048;-65
2022/05/22 05:14:10;;;;;;;18.95;10.15;;;9.80;99.90;;;;;;5061120;28;20054;-65
2022/05/22 05:16:35;;;;;;;14.57;8.93;;;9.80;99.90;;;;;;5011360;28;20105;-65
2022/05/22 05:19:01;;;;;;;16.52;8.85;;;10.00;99.90;;;;;;5010806;28;20045;-65
2022/05/22 05:21:28;;;;;;;20.13;10.10;;;10.10;99.90;;;;;;5060029;28;20044;-65
2022/05/22 05:23:55;;;;;;;16.98;9.32;;;10.10;99.90;;;;;;5029289;28;20053;-65
2022/05/22 05:26:22;;;;;;;19.98;10.00;;;10.20;99.90;;;;;;5057043;28;20038;-65
2022/05/22 05:28:49;;;;;;;22.73;9.75;;;10.20;99.90;;;;;;5027987;28;20049;-65
2022/05/22 05:31:15;;;;;;;22.95;9.70;;;10.30;99.90;;;;;;5031748;28;20053;-65
2022/05/22 05:33:40;;;;;;;19.38;9.55;;;10.40;99.90;;;;;;5023411;28;20080;-65
2022/05/22 05:36:11;;;;;;;26.85;11.13;;;10.60;99.90;;;;;;5021791;28;20045;-65
2022/05/22 05:38:37;;;;;;;22.58;9.50;;;10.60;99.90;;;;;;5028342;28;20049;-65
2022/05/22 05:41:03;;;;;;;17.45;9.32;;;10.70;99.90;;;;;;5030026;28;20045;-65
2022/05/22 05:43:29;;;;;;;18.48;9.55;;;10.80;99.90;;;;;;5026397;28;20057;-65
2022/05/22 05:45:54;;;;;;;22.13;9.30;;;11.00;99.90;;;;;;5026640;28;20045;-65
2022/05/22 05:48:20;;;;;;;25.70;9.63;;;11.00;99.90;;;;;;5026974;28;20061;-65
2022/05/22 05:50:46;;;;;;;26.98;10.35;;;11.30;99.90;;;;;;5010984;28;20102;-65
2022/05/22 05:53:12;;;;;;;18.85;8.35;;;11.30;99.90;;;;;;5019881;28;20076;-65
2022/05/22 05:55:37;;;;;;;22.55;9.23;;;11.40;99.90;;;;;;5028414;28;20175;-65
2022/05/22 05:58:03;;;;;;;16.15;9.00;;;11.50;99.90;;;;;;5027320;28;20045;-65
2022/05/22 06:00:30;;;;;;;18.17;8.55;;;11.40;99.90;;;;;;5026423;28;20050;-65
2022/05/22 06:02:56;;;;;;;24.73;8.63;;;11.50;99.90;;;;;;5026991;28;20053;-65
2022/05/22 06:05:22;;;;;;;24.30;9.57;;;11.50;99.90;;;;;;5028726;28;20045;-65
2022/05/22 06:07:51;;;;;;;24.58;8.95;;;11.60;99.90;;;;;;5020109;28;20128;-65
2022/05/22 06:10:19;;;;;;;22.10;8.63;;;11.90;99.90;;;;;;5026847;28;20048;-65
2022/05/22 06:12:46;;;;;;;15.80;8.38;;;11.80;99.90;;;;;;5042274;28;20067;-65
2022/05/22 06:15:14;;;;;;;24.92;9.20;;;11.80;99.90;;;;;;5025781;28;20060;-65
2022/05/22 06:17:46;;;;;;;16.23;8.05;;;11.90;99.90;;;;;;5042536;28;20045;-65
2022/05/22 06:20:16;;;;;;;20.02;8.77;;;12.00;99.90;;;;;;5042717;28;20485;-65
2022/05/22 06:22:44;;;;;;;16.40;8.75;;;12.00;99.90;;;;;;5025805;28;20045;-65
2022/05/22 06:25:12;;;;;;;30.63;9.77;;;12.10;99.90;;;;;;5009485;28;20103;-65
2022/05/22 06:27:38;;;;;;;25.58;9.60;;;12.20;99.90;;;;;;5026049;28;20041;-65
2022/05/22 06:30:05;;;;;;;20.15;8.65;;;12.20;99.90;;;;;;5025942;28;20103;-65
2022/05/22 06:32:30;;;;;;;19.90;8.75;;;12.40;99.90;;;;;;5039313;28;20076;-65
2022/05/22 06:34:58;;;;;;;20.45;8.70;;;12.30;99.90;;;;;;5011468;28;20107;-65
2022/05/22 06:37:24;;;;;;;20.02;8.48;;;12.40;99.90;;;;;;5028229;28;20081;-65
2022/05/22 06:39:50;;;;;;;23.58;9.20;;;12.50;99.90;;;;;;5012549;28;20045;-65
2022/05/22 06:42:30;;;;;;;24.98;9.20;;;12.50;99.90;;;;;;5056576;28;20049;-65
2022/05/22 06:45:13;;;;;;;19.83;7.93;;;12.50;99.90;;;;;;5023271;28;20041;-65
2022/05/22 06:47:40;;;;;;;20.33;7.38;;;12.70;99.90;;;;;;5038214;28;20049;-65
2022/05/22 06:50:09;;;;;;;20.25;8.43;;;12.70;99.90;;;;;;5031171;28;20048;-65
2022/05/22 06:52:36;;;;;;;18.58;7.88;;;12.80;99.90;;;;;;5015334;28;20073;-65
2022/05/22 06:55:03;;;;;;;19.55;8.23;;;12.90;99.90;;;;;;5029870;28;20049;-65
2022/05/22 06:57:29;;;;;;;16.95;7.30;;;12.90;99.90;;;;;;5024682;28;20052;-64
2022/05/22 06:59:56;;;;;;;18.65;7.45;;;13.00;99.90;;;;;;5046249;28;20053;-64
2022/05/22 07:02:23;;;;;;;16.15;7.35;;;13.00;99.90;;;;;;5029752;28;20046;-64
2022/05/22 07:04:49;;;;;;;13.57;6.72;;;13.10;99.90;;;;;;5023802;28;20128;-64
2022/05/22 07:07:15;;;;;;;18.88;7.03;;;13.00;99.90;;;;;;5020453;28;20049;-64
2022/05/22 07:09:40;;;;;;;13.38;6.28;;;13.00;99.90;;;;;;5041798;28;20045;-64
2022/05/22 07:12:12;;;;;;;18.38;6.82;;;13.10;99.90;;;;;;5046092;28;20120;-65
2022/05/22 07:14:38;;;;;;;13.80;5.28;;;13.10;99.90;;;;;;5028364;28;20053;-65
2022/05/22 07:17:05;;;;;;;12.38;5.25;;;13.10;99.90;;;;;;5027808;28;20517;-63
2022/05/22 07:19:34;;;;;;;17.95;7.10;;;13.20;99.90;;;;;;5062759;28;20489;-63
2022/05/22 07:22:06;;;;;;;16.73;7.72;;;13.30;99.90;;;;;;5029256;28;20041;-64
2022/05/22 07:24:32;;;;;;;13.45;5.20;;;13.30;99.90;;;;;;5027341;28;20080;-64
2022/05/22 07:26:57;;;;;;;13.00;5.55;;;13.40;99.90;;;;;;5011667;28;20053;-64
2022/05/22 07:29:23;;;;;;;13.40;5.90;;;13.40;99.90;;;;;;5061157;28;20409;-64
2022/05/22 07:31:49;;;;;;;16.33;6.15;;;13.50;99.90;;;;;;5045948;28;20034;-64
2022/05/22 07:34:15;;;;;;;13.30;5.68;;;13.60;99.90;;;;;;5025508;28;20044;-64
2022/05/22 07:36:41;;;;;;;14.18;4.95;;;13.70;99.90;;;;;;5027561;28;20049;-63
2022/05/22 07:39:07;;;;;;;16.25;6.30;;;13.60;99.90;;;;;;5015876;28;20124;-63
2022/05/22 07:41:33;;;;;;;13.80;5.68;;;13.90;99.90;;;;;;5011142;28;20033;-63
2022/05/22 07:43:59;;;;;;;13.68;4.22;;;13.70;99.90;;;;;;5026550;28;20124;-63
2022/05/22 07:46:26;;;;;;;9.75;8.57;;;13.80;99.90;;;;;;4986218;28;20057;-63
2022/05/22 07:48:52;;;;;;;13.32;4.45;;;13.80;99.90;;;;;;5007923;28;20041;-64
2022/05/22 07:51:18;;;;;;;11.82;5.35;;;13.90;99.90;;;;;;5041663;28;20136;-63
2022/05/22 07:53:44;;;;;;;11.60;5.35;;;13.90;99.90;;;;;;5019956;28;20059;-65
2022/05/22 07:56:12;;;;;;;13.85;4.72;;;14.00;99.90;;;;;;5007385;28;20120;-64
2022/05/22 07:58:39;;;;;;;15.75;5.85;;;14.00;99.90;;;;;;5018210;28;20060;-66
2022/05/22 08:01:04;;;;;;;9.60;4.93;;;14.10;99.90;;;;;;5008172;28;20052;-66
2022/05/22 08:03:30;;;;;;;15.80;5.00;;;14.10;99.90;;;;;;5006368;28;20053;-67
2022/05/22 08:05:56;;;;;;;14.60;5.40;;;14.20;99.90;;;;;;5019103;28;20057;-65
2022/05/22 08:08:23;;;;;;;14.90;5.43;;;14.10;99.90;;;;;;5007743;28;20057;-65
2022/05/22 08:10:49;;;;;;;14.13;4.80;;;14.10;99.90;;;;;;5033780;28;20046;-65
2022/05/22 08:13:14;;;;;;;11.20;4.78;;;14.30;99.90;;;;;;5012482;28;20042;-65
2022/05/22 08:15:42;;;;;;;13.32;4.90;;;14.30;99.90;;;;;;5034411;28;20076;-65
2022/05/22 08:18:08;;;;;;;12.80;4.13;;;14.40;99.90;;;;;;5011856;28;20030;-65
2022/05/22 08:20:36;;;;;;;11.02;4.40;;;14.50;99.90;;;;;;5037544;28;20326;-64
2022/05/22 08:23:09;;;;;;;9.93;4.13;;;14.60;99.90;;;;;;5003173;28;20075;-67
2022/05/22 08:25:35;;;;;;;14.43;5.00;;;14.60;99.90;;;;;;5038427;28;20140;-65
2022/05/22 08:28:04;;;;;;;10.80;4.90;;;14.70;99.90;;;;;;5020464;28;20045;-65
2022/05/22 08:30:30;;;;;;;14.77;4.85;;;14.80;99.90;;;;;;5002994;28;20084;-64
2022/05/22 08:32:57;;;;;;;12.85;5.30;;;14.90;99.90;;;;;;5014196;28;20042;-64
2022/05/22 08:35:31;;;;;;;14.40;5.40;;;15.00;99.90;;;;;;5028283;28;20126;-64
2022/05/22 08:37:58;;;;;;;12.77;4.90;;;15.00;99.90;;;;;;5018773;28;20037;-64
2022/05/22 08:40:26;;;;;;;13.77;4.90;;;15.10;99.90;;;;;;5026561;28;20056;-64
2022/05/22 08:43:14;;;;;;;11.98;3.83;;;15.20;99.90;;;;;;5019965;28;20143;-64
2022/05/22 08:45:46;;;;;;;11.88;4.07;;;15.40;99.90;;;;;;5008750;28;20042;-65
2022/05/22 08:48:25;;;;;;;9.80;4.25;;;15.50;99.90;;;;;;4991726;28;20088;-66
2022/05/22 08:51:02;;;;;;;13.10;4.55;;;15.50;99.90;;;;;;5032571;28;20041;-65
2022/05/22 08:53:42;;;;;;;10.77;4.18;;;15.60;99.90;;;;;;5044986;28;20057;-65
2022/05/22 08:59:10;;;;;;;11.57;3.95;;;15.70;99.90;;;;;;5019048;28;20051;-65
2022/05/22 09:01:51;;;;;;;10.38;3.60;;;15.80;99.90;;;;;;5029574;28;20057;-65
2022/05/22 09:04:31;;;;;;;10.07;3.20;;;15.90;99.90;;;;;;5018031;28;20131;-70
2022/05/22 09:07:19;;;;;;;9.60;3.17;;;15.90;99.90;;;;;;5025166;28;20034;-68
2022/05/22 09:09:53;;;;;;;10.85;4.00;;;16.10;99.90;;;;;;5040576;28;20087;-67
2022/05/22 09:12:31;;;;;;;11.18;4.03;;;16.30;99.90;;;;;;5020696;28;20057;-68
2022/05/22 09:15:16;;;;;;;8.30;3.70;;;16.40;99.90;;;;;;5012411;28;20038;-68
2022/05/22 09:18:00;;;;;;;12.15;3.85;;;16.60;99.90;;;;;;4982962;28;20049;-68
2022/05/22 09:20:34;;;;;;;12.93;4.00;;;16.70;99.90;;;;;;5014489;28;20053;-68
2022/05/22 09:23:15;;;;;;;11.98;3.80;;;16.80;99.90;;;;;;5016677;28;20108;-67
2022/05/22 09:25:56;;;;;;;13.27;4.80;;;16.80;99.90;;;;;;4974121;28;20112;-68
2022/05/22 09:29:08;;;;;;;10.88;3.88;;;16.80;99.90;;;;;;4984441;28;20053;-68
2022/05/22 09:32:14;;;;;;;8.45;3.88;;;16.70;99.90;;;;;;4946226;28;20059;-67
2022/05/22 09:35:01;;;;;;;9.25;3.63;;;16.70;99.90;;;;;;4968644;28;20105;-68
2022/05/22 09:37:47;;;;;;;9.40;3.20;;;16.70;99.90;;;;;;4940574;28;20411;-68
2022/05/22 09:40:21;;;;;;;10.93;3.35;;;16.90;99.90;;;;;;4923479;29;20055;-68
2022/05/22 09:42:59;;;;;;;7.97;3.33;;;16.90;99.90;;;;;;4943963;29;20098;-68
2022/05/22 09:45:47;;;;;;;9.02;3.20;;;17.10;99.90;;;;;;4947435;28;20557;-68
2022/05/22 09:48:31;;;;;;;14.95;3.25;;;17.20;99.90;;;;;;4965086;28;20197;-68
2022/05/22 09:51:09;;;;;;;10.68;3.28;;;17.40;99.90;;;;;;4938452;28;20174;-68
2022/05/22 09:53:54;;;;;;;12.80;3.05;;;17.20;99.90;;;;;;4954103;28;20063;-68
2022/05/22 09:56:36;;;;;;;9.60;2.97;;;17.00;99.90;;;;;;4958598;28;20082;-67
2022/05/22 09:59:01;;;;;;;9.98;3.65;;;17.00;99.90;;;;;;4934481;28;20058;-68
2022/05/22 10:01:34;;;;;;;8.32;2.78;;;16.90;99.90;;;;;;4942770;29;20482;-67
2022/05/22 10:04:20;;;;;;;9.05;3.15;;;16.80;99.90;;;;;;4947119;28;20058;-67
2022/05/22 10:07:06;;;;;;;10.95;3.10;;;16.80;99.90;;;;;;4966325;28;20081;-67
2022/05/22 10:09:37;;;;;;;10.52;3.20;;;16.70;99.90;;;;;;5015027;28;20060;-67
2022/05/22 10:12:37;;;;;;;7.43;2.85;;;16.70;99.90;;;;;;5010691;28;20111;-68
2022/05/22 10:15:03;;;;;;;10.60;2.95;;;16.70;99.90;;;;;;4999422;28;20161;-68
2022/05/22 10:17:48;;;;;;;7.60;2.67;;;16.80;99.90;;;;;;5002921;28;20558;-68
2022/05/22 10:20:22;;;;;;;7.28;2.88;;;16.90;99.90;;;;;;5006407;28;20053;-67
2022/05/22 10:23:11;;;;;;;13.55;2.90;;;17.10;99.90;;;;;;5002743;28;20038;-68
2022/05/22 10:26:11;;;;;;;5.70;2.10;;;17.50;99.90;;;;;;4992934;28;20042;-68
2022/05/22 10:28:46;;;;;;;6.20;2.53;;;17.60;99.90;;;;;;4991683;28;20076;-68
2022/05/22 10:31:23;;;;;;;8.75;2.65;;;17.70;99.90;;;;;;5014880;28;20464;-68
2022/05/22 10:34:15;;;;;;;9.02;2.72;;;17.90;99.90;;;;;;4995399;28;20141;-68
2022/05/22 10:36:52;;;;;;;4.63;2.25;;;18.40;99.90;;;;;;5011344;28;20042;-68
2022/05/22 10:39:19;;;;;;;9.75;2.97;;;18.60;99.90;;;;;;4997105;28;20422;-68
2022/05/22 10:44:53;;;;;;;6.03;3.05;;;18.70;99.90;;;;;;5001162;28;20069;-68
2022/05/22 10:47:33;;;;;;;7.55;2.72;;;18.80;99.90;;;;;;4992402;28;20050;-68
2022/05/22 10:50:00;;;;;;;6.68;2.50;;;19.00;99.90;;;;;;5002109;28;20084;-68
2022/05/22 10:52:34;;;;;;;3.97;2.10;;;19.20;99.90;;;;;;5006505;28;20050;-68
2022/05/22 10:55:01;;;;;;;6.97;2.83;;;19.50;99.90;;;;;;5005966;28;20116;-68
2022/05/22 10:57:32;;;;;;;7.13;2.25;;;19.50;99.90;;;;;;5025066;28;20483;-68
2022/05/22 11:00:09;;;;;;;6.70;2.55;;;19.50;99.90;;;;;;5003197;28;20100;-67
2022/05/22 11:02:35;;;;;;;7.55;2.60;;;19.50;99.90;;;;;;5002726;28;20477;-68
2022/05/22 11:05:01;;;;;;;7.20;2.75;;;19.30;99.90;;;;;;4987810;28;20073;-68
2022/05/22 11:07:30;;;;;;;7.38;2.97;;;19.20;99.90;;;;;;4988758;28;20510;-68
2022/05/22 11:10:06;;;;;;;8.57;2.58;;;19.20;99.90;;;;;;5002288;28;20576;-68
2022/05/22 11:12:31;;;;;;;7.10;2.65;;;19.20;99.90;;;;;;5002759;28;20064;-68
2022/05/22 11:15:24;;;;;;;6.95;2.47;;;19.20;99.90;;;;;;4991375;28;20045;-68
2022/05/22 11:18:09;;;;;;;8.45;2.22;;;19.30;99.90;;;;;;5005343;28;20045;-68
2022/05/22 11:20:44;;;;;;;8.25;2.65;;;19.30;99.90;;;;;;5019678;28;20042;-68
2022/05/22 11:23:35;;;;;;;7.18;2.80;;;19.40;99.90;;;;;;5007871;28;20595;-68
2022/05/22 11:26:29;;;;;;;8.40;2.92;;;19.50;99.90;;;;;;5005030;28;20046;-68
2022/05/22 11:29:31;;;;;;;7.95;2.83;;;19.70;99.90;;;;;;4998455;28;20037;-68
2022/05/22 11:32:28;;;;;;;8.57;3.25;;;19.80;99.90;;;;;;5008743;28;20046;-69
2022/05/22 11:35:08;;;;;;;7.55;2.35;;;19.60;99.90;;;;;;5013377;28;20045;-68
2022/05/22 11:38:09;;;;;;;9.77;2.60;;;19.70;99.90;;;;;;5010209;28;20136;-67
2022/05/22 11:40:38;;;;;;;9.48;2.67;;;20.00;99.90;;;;;;5009069;28;20061;-68
2022/05/22 11:43:24;;;;;;;7.72;2.60;;;20.10;99.90;;;;;;4995025;28;20073;-68
2022/05/22 11:46:09;;;;;;;5.38;2.30;;;20.20;99.90;;;;;;5007097;28;20502;-68
2022/05/22 11:48:42;;;;;;;10.05;2.75;;;20.20;99.90;;;;;;4992049;28;20158;-68
2022/05/22 11:51:51;;;;;;;6.25;2.47;;;20.10;99.90;;;;;;5004484;28;20462;-68
2022/05/22 11:54:29;;;;;;;6.22;2.20;;;20.00;99.90;;;;;;5033000;28;20045;-68
2022/05/22 11:57:34;;;;;;;7.13;2.28;;;20.10;99.90;;;;;;5020095;28;20460;-68
2022/05/22 12:00:35;;;;;;;6.68;2.58;;;20.00;99.90;;;;;;4980084;28;20053;-68
2022/05/22 12:03:48;;;;;;;6.43;3.08;;;20.10;99.90;;;;;;4992663;28;20097;-68
2022/05/22 12:06:38;;;;;;;7.25;2.70;;;19.90;99.90;;;;;;4933825;28;20103;-67
2022/05/22 12:09:18;;;;;;;7.82;2.60;;;20.00;99.90;;;;;;4945031;28;20043;-68
2022/05/22 12:12:14;;;;;;;5.95;2.53;;;19.90;99.90;;;;;;4933392;29;20047;-68
2022/05/22 12:15:06;;;;;;;6.90;2.72;;;20.40;99.90;;;;;;4934082;29;20202;-68
2022/05/22 12:17:39;;;;;;;6.78;2.20;;;20.00;99.90;;;;;;4921101;29;20060;-68
2022/05/22 12:20:32;;;;;;;5.88;2.72;;;20.10;99.90;;;;;;4920970;28;20047;-68
2022/05/22 12:23:13;;;;;;;6.53;2.28;;;19.80;99.90;;;;;;4946073;28;20106;-68
2022/05/22 12:26:01;;;;;;;6.32;2.50;;;19.90;99.90;;;;;;4932682;29;20055;-68
2022/05/22 12:28:35;;;;;;;5.15;2.47;;;19.80;99.90;;;;;;4949787;28;20050;-68
2022/05/22 12:31:05;;;;;;;6.45;2.40;;;19.80;99.90;;;;;;4951369;28;20110;-68
2022/05/22 12:33:33;;;;;;;5.93;2.35;;;19.60;99.90;;;;;;4954647;28;20431;-68
2022/05/22 12:36:00;;;;;;;9.10;2.70;;;19.70;99.90;;;;;;4944352;28;20657;-68
2022/05/22 12:38:26;;;;;;;6.15;2.70;;;19.80;99.90;;;;;;4937759;29;20050;-68
2022/05/22 12:40:58;;;;;;;6.22;1.98;;;19.70;99.90;;;;;;4945035;28;20056;-68
2022/05/22 12:43:25;;;;;;;6.18;2.78;;;19.70;99.90;;;;;;5014440;28;20100;-68
2022/05/22 12:45:59;;;;;;;6.82;2.30;;;19.70;99.90;;;;;;5027424;28;20063;-68
2022/05/22 12:48:34;;;;;;;5.65;2.38;;;19.70;99.90;;;;;;4992788;28;20093;-68
2022/05/22 12:51:11;;;;;;;6.88;2.55;;;19.80;99.90;;;;;;5027902;28;20151;-68
2022/05/22 12:53:42;;;;;;;5.15;2.30;;;19.90;99.90;;;;;;4996644;28;20056;-68
2022/05/22 12:56:27;;;;;;;7.25;2.45;;;20.20;99.90;;;;;;5017898;28;20135;-68
2022/05/22 12:58:57;;;;;;;5.63;2.33;;;20.40;99.90;;;;;;4984075;28;20053;-68
2022/05/22 13:01:37;;;;;;;7.55;3.55;;;20.70;99.90;;;;;;5004518;28;20057;-68
2022/05/22 13:04:15;;;;;;;5.22;2.22;;;20.90;99.90;;;;;;4998979;28;20547;-68
2022/05/22 13:07:18;;;;;;;8.27;2.60;;;21.20;99.90;;;;;;4963660;28;20054;-68
2022/05/22 13:09:49;;;;;;;5.88;2.47;;;21.30;99.90;;;;;;4994736;28;20054;-68
2022/05/22 13:12:18;;;;;;;5.38;2.80;;;21.40;99.90;;;;;;5018256;28;20204;-68
2022/05/22 13:15:06;;;;;;;6.63;2.55;;;21.40;99.90;;;;;;4998664;28;20073;-68
2022/05/22 13:17:37;;;;;;;4.57;2.40;;;21.60;99.90;;;;;;4991599;28;20146;-68
2022/05/22 13:20:08;;;;;;;7.72;2.20;;;21.60;99.90;;;;;;5011964;28;20328;-69